Time;durP1;ratioP1;P1;durP2;ratioP2;P2;SDS_P1;SDS_P2;PMS_P1;PMS_P2;Temp;Humidity;BMP_temperature;BMP_pressure;BME280_temperature;BME280_humidity;BME280_pressure;Samples;Min_cycle;Max_cycle;Signal;HPM_P1;HPM_P2
2023/04/14 00:01:48;;;;;;;9.90;4.00;;;3.70;99.90;;;;;;5053282;28;20545;-66
2023/04/14 00:04:14;;;;;;;11.45;4.10;;;3.70;99.90;;;;;;5053586;28;20040;-66
2023/04/14 00:06:40;;;;;;;15.70;4.97;;;3.70;99.90;;;;;;5051951;28;20037;-66
2023/04/14 00:09:05;;;;;;;12.82;4.43;;;3.60;99.90;;;;;;5051941;28;20033;-66
2023/04/14 00:11:31;;;;;;;13.07;3.92;;;3.60;99.90;;;;;;5052161;28;20064;-66
2023/04/14 00:13:57;;;;;;;9.70;4.45;;;3.60;99.90;;;;;;5051886;28;20095;-67
2023/04/14 00:16:22;;;;;;;10.38;4.28;;;3.50;99.90;;;;;;5051920;28;20071;-67
2023/04/14 00:18:48;;;;;;;11.32;4.25;;;3.50;99.90;;;;;;5052158;28;20044;-67
2023/04/14 00:21:13;;;;;;;8.40;3.90;;;3.50;99.90;;;;;;5051677;28;20045;-67
2023/04/14 00:23:39;;;;;;;11.38;4.20;;;3.50;99.90;;;;;;5051784;28;20076;-67
2023/04/14 00:26:04;;;;;;;13.27;4.97;;;3.50;99.90;;;;;;5051985;28;20495;-66
2023/04/14 00:28:30;;;;;;;9.50;4.30;;;3.50;99.90;;;;;;5051697;28;20049;-67
2023/04/14 00:30:55;;;;;;;10.02;4.53;;;3.50;99.90;;;;;;5051688;28;20037;-66
2023/04/14 00:33:21;;;;;;;11.68;4.13;;;3.50;99.90;;;;;;5051691;28;20127;-67
2023/04/14 00:35:47;;;;;;;13.55;4.65;;;3.50;99.90;;;;;;5051579;28;20052;-67
2023/04/14 00:38:12;;;;;;;13.38;4.22;;;3.50;99.90;;;;;;5051711;28;20041;-67
2023/04/14 00:40:38;;;;;;;8.98;4.15;;;3.50;99.90;;;;;;5051793;28;20045;-66
2023/04/14 00:43:03;;;;;;;11.07;4.20;;;3.50;99.90;;;;;;5051632;28;20033;-66
2023/04/14 00:45:29;;;;;;;9.77;4.53;;;3.50;99.90;;;;;;5051603;28;20072;-66
2023/04/14 00:47:56;;;;;;;10.02;4.25;;;3.40;99.90;;;;;;5051841;28;20104;-66
2023/04/14 00:50:21;;;;;;;12.20;4.63;;;3.40;99.90;;;;;;5053357;28;20067;-66
2023/04/14 00:52:48;;;;;;;13.15;5.07;;;3.40;99.90;;;;;;5055263;28;20037;-67
2023/04/14 00:55:18;;;;;;;11.82;4.75;;;3.40;99.90;;;;;;5056509;28;20479;-67
2023/04/14 01:01:26;;;;;;;11.30;4.30;;;3.40;99.90;;;;;;5056349;28;20094;-67
2023/04/14 01:03:52;;;;;;;10.23;4.60;;;3.40;99.90;;;;;;5056387;28;20087;-66
2023/04/14 01:06:17;;;;;;;13.98;4.60;;;3.40;99.90;;;;;;5055019;28;20037;-66
2023/04/14 01:08:43;;;;;;;9.40;4.47;;;3.40;99.90;;;;;;5055290;28;20510;-66
2023/04/14 01:11:16;;;;;;;10.32;4.28;;;3.30;99.90;;;;;;5054907;28;20052;-66
2023/04/14 01:13:47;;;;;;;;;;;3.40;99.90;;;;;;5055271;28;20059;-67
2023/04/14 01:16:32;;;;;;;13.05;3.92;;;3.30;99.90;;;;;;5071458;28;19974;-66
2023/04/14 01:18:58;;;;;;;9.98;4.43;;;3.30;99.90;;;;;;5054804;28;20407;-67
2023/04/14 01:21:30;;;;;;;11.23;4.40;;;3.30;99.90;;;;;;5054674;28;20041;-66
2023/04/14 01:24:07;;;;;;;13.80;4.72;;;3.20;99.90;;;;;;5054762;28;20111;-67
2023/04/14 01:26:33;;;;;;;11.80;4.50;;;3.20;99.90;;;;;;5054681;28;20056;-66
2023/04/14 01:29:18;;;;;;;10.23;4.60;;;3.20;99.90;;;;;;5054623;28;20040;-66
2023/04/14 01:35:36;;;;;;;13.18;4.63;;;3.20;99.90;;;;;;5035840;28;20041;-66
2023/04/14 01:38:12;;;;;;;8.32;4.50;;;3.20;99.90;;;;;;5034566;28;20124;-67
2023/04/14 01:40:41;;;;;;;14.77;4.53;;;3.20;99.90;;;;;;5034366;28;20381;-66
2023/04/14 01:43:10;;;;;;;12.13;4.82;;;3.20;99.90;;;;;;5034353;28;20049;-66
2023/04/14 01:45:40;;;;;;;14.23;4.55;;;3.20;99.90;;;;;;5034377;28;20037;-66
2023/04/14 01:48:06;;;;;;;11.25;4.82;;;3.30;99.90;;;;;;5048695;28;20072;-66
2023/04/14 01:50:35;;;;;;;11.23;3.92;;;3.20;99.90;;;;;;5054136;28;20037;-66
2023/04/14 01:53:03;;;;;;;12.82;4.90;;;3.30;99.90;;;;;;5055364;28;20119;-66
2023/04/14 01:55:30;;;;;;;10.55;4.68;;;3.20;99.90;;;;;;5054084;28;20036;-67
2023/04/14 01:57:57;;;;;;;9.73;4.30;;;3.30;99.90;;;;;;5054025;28;20045;-67
2023/04/14 02:00:24;;;;;;;10.85;4.60;;;3.30;99.90;;;;;;5054162;28;20076;-67
2023/04/14 02:02:53;;;;;;;13.55;4.10;;;3.30;99.90;;;;;;5053544;28;20147;-66
2023/04/14 02:05:20;;;;;;;10.75;4.63;;;3.30;99.90;;;;;;5054135;28;20087;-67
2023/04/14 02:07:48;;;;;;;11.50;5.10;;;3.30;99.90;;;;;;5053873;28;20052;-66
2023/04/14 02:10:19;;;;;;;10.25;4.50;;;3.30;99.90;;;;;;5054036;28;20128;-66
2023/04/14 02:12:47;;;;;;;15.20;4.50;;;3.30;99.90;;;;;;5055228;28;20071;-66
2023/04/14 02:18:53;;;;;;;11.13;4.78;;;3.30;99.90;;;;;;5054898;28;20031;-66
2023/04/14 02:21:21;;;;;;;11.23;4.00;;;3.30;99.90;;;;;;5053441;28;20127;-66
2023/04/14 02:23:47;;;;;;;9.70;4.00;;;3.30;99.90;;;;;;5053519;28;20063;-66
2023/04/14 02:26:15;;;;;;;13.38;4.72;;;3.30;99.90;;;;;;5053481;28;20037;-67
2023/04/14 02:28:47;;;;;;;8.70;4.32;;;3.40;99.90;;;;;;5053423;28;20400;-67
2023/04/14 02:31:19;;;;;;;12.50;4.38;;;3.30;99.90;;;;;;5053722;28;20456;-67
2023/04/14 02:33:48;;;;;;;11.93;3.88;;;3.30;99.90;;;;;;5053713;28;20036;-67
2023/04/14 02:36:20;;;;;;;10.98;3.85;;;3.30;99.90;;;;;;5053229;28;20041;-68
2023/04/14 02:39:00;;;;;;;9.50;4.18;;;3.30;99.90;;;;;;5037139;28;20037;-67
2023/04/14 02:41:28;;;;;;;9.82;3.90;;;3.30;99.90;;;;;;5053081;28;20151;-67
2023/04/14 02:44:21;;;;;;;13.30;4.13;;;3.30;99.90;;;;;;5052890;28;20095;-68
2023/04/14 02:47:08;;;;;;;10.00;3.83;;;3.30;99.90;;;;;;5057546;28;20395;-67
2023/04/14 02:49:36;;;;;;;10.02;4.03;;;3.30;99.90;;;;;;5052837;28;20041;-67
2023/04/14 02:52:08;;;;;;;7.85;3.70;;;3.20;99.90;;;;;;5054051;28;20443;-67
2023/04/14 02:54:36;;;;;;;10.47;3.87;;;3.20;99.90;;;;;;5053191;28;20045;-67
2023/04/14 02:57:03;;;;;;;8.50;3.55;;;3.20;99.90;;;;;;5052033;28;20037;-67
2023/04/14 02:59:30;;;;;;;10.27;4.38;;;3.20;99.90;;;;;;5052246;28;20056;-67
2023/04/14 03:02:00;;;;;;;9.40;3.97;;;3.10;99.90;;;;;;5052196;28;20067;-67
2023/04/14 03:04:34;;;;;;;11.88;4.40;;;3.10;99.90;;;;;;5052502;28;20052;-67
2023/04/14 03:10:43;;;;;;;10.40;3.80;;;3.00;99.90;;;;;;5052856;28;20094;-67
2023/04/14 03:13:10;;;;;;;16.67;4.30;;;3.00;99.90;;;;;;5051801;28;20399;-68
2023/04/14 03:15:37;;;;;;;14.18;4.47;;;3.00;99.90;;;;;;5068422;28;20041;-68
2023/04/14 03:18:04;;;;;;;14.02;4.38;;;3.00;99.90;;;;;;5052010;28;20399;-67
2023/04/14 03:20:31;;;;;;;12.63;4.13;;;3.00;99.90;;;;;;5051884;28;20052;-67
2023/04/14 03:23:04;;;;;;;12.18;4.25;;;2.90;99.90;;;;;;5052318;28;20037;-67
2023/04/14 03:29:13;;;;;;;17.10;4.20;;;2.90;99.90;;;;;;5033585;28;20072;-67
2023/04/14 03:35:21;;;;;;;13.50;4.25;;;2.80;99.90;;;;;;5071319;28;20112;-67
2023/04/14 03:37:49;;;;;;;8.90;4.03;;;2.80;99.90;;;;;;5038985;28;20435;-67
2023/04/14 03:43:57;;;;;;;10.95;5.22;;;2.80;99.90;;;;;;5065138;28;20056;-68
2023/04/14 03:46:23;;;;;;;9.50;4.10;;;2.80;99.90;;;;;;5063614;28;20040;-67
2023/04/14 03:48:51;;;;;;;16.17;4.95;;;2.80;99.90;;;;;;5051541;28;20037;-67
2023/04/14 03:55:02;;;;;;;15.10;4.07;;;2.80;99.90;;;;;;5033438;28;20048;-67
2023/04/14 03:57:31;;;;;;;9.65;3.95;;;2.70;99.90;;;;;;5032169;28;20448;-67
2023/04/14 03:59:59;;;;;;;13.93;4.18;;;2.70;99.90;;;;;;5048976;28;20045;-67
2023/04/14 04:06:06;;;;;;;11.18;4.38;;;2.60;99.90;;;;;;5052799;28;20534;-67
2023/04/14 04:08:34;;;;;;;14.43;4.63;;;2.50;99.90;;;;;;5051522;28;20119;-67
2023/04/14 04:11:03;;;;;;;8.73;4.30;;;2.50;99.90;;;;;;5051588;28;20045;-67
2023/04/14 04:13:31;;;;;;;11.30;4.05;;;2.40;99.90;;;;;;5051902;28;20144;-67
2023/04/14 04:15:57;;;;;;;14.43;4.65;;;2.40;99.90;;;;;;5051892;28;20396;-67
2023/04/14 04:18:25;;;;;;;11.45;4.40;;;2.40;99.90;;;;;;5043182;28;20041;-67
2023/04/14 04:20:52;;;;;;;10.02;4.50;;;2.40;99.90;;;;;;5031785;28;20080;-66
2023/04/14 04:23:19;;;;;;;15.05;4.07;;;2.30;99.90;;;;;;5031917;28;20049;-66
2023/04/14 04:25:46;;;;;;;8.95;3.97;;;2.30;99.90;;;;;;5033183;28;20042;-66
2023/04/14 04:28:12;;;;;;;10.23;3.92;;;2.20;99.90;;;;;;5035801;28;20038;-66
2023/04/14 04:30:42;;;;;;;10.00;4.03;;;2.10;99.90;;;;;;5035674;28;20132;-66
2023/04/14 04:33:09;;;;;;;10.85;4.10;;;2.00;99.90;;;;;;5042043;28;20063;-66
2023/04/14 04:35:36;;;;;;;9.13;4.07;;;2.00;99.90;;;;;;5056883;28;20041;-66
2023/04/14 04:41:42;;;;;;;14.05;5.03;;;1.90;99.90;;;;;;5057015;28;20087;-66
2023/04/14 04:44:08;;;;;;;12.45;5.47;;;1.90;99.90;;;;;;5072099;28;20480;-67
2023/04/14 04:46:54;;;;;;;11.65;4.75;;;1.90;99.90;;;;;;5055309;28;20472;-67
2023/04/14 04:49:21;;;;;;;11.88;4.63;;;2.00;99.90;;;;;;5055076;28;20060;-67
2023/04/14 04:55:27;;;;;;;13.75;4.88;;;2.00;99.90;;;;;;5046607;28;20115;-67
2023/04/14 04:57:52;;;;;;;10.13;4.65;;;2.10;99.90;;;;;;5035069;28;20136;-67
2023/04/14 05:00:21;;;;;;;9.05;4.30;;;2.10;99.90;;;;;;5041107;28;20162;-67
2023/04/14 05:02:47;;;;;;;9.10;4.32;;;2.10;99.90;;;;;;5054732;28;20076;-67
2023/04/14 05:05:12;;;;;;;8.85;4.47;;;2.10;99.90;;;;;;5054728;28;20069;-67
2023/04/14 05:07:38;;;;;;;10.00;4.25;;;2.10;99.90;;;;;;5071593;28;20372;-67
2023/04/14 05:13:44;;;;;;;11.32;4.53;;;2.10;99.90;;;;;;5052479;28;20033;-67
2023/04/14 05:19:51;;;;;;;13.00;4.45;;;2.10;99.90;;;;;;5054219;28;20040;-68
2023/04/14 05:22:16;;;;;;;12.57;4.97;;;2.20;99.90;;;;;;5054605;28;20041;-67
2023/04/14 05:24:50;;;;;;;13.38;5.00;;;2.20;99.90;;;;;;5053574;28;20041;-67
2023/04/14 05:27:15;;;;;;;15.90;5.13;;;2.30;99.90;;;;;;5053855;28;20028;-67
2023/04/14 05:29:41;;;;;;;11.27;5.00;;;2.30;99.90;;;;;;5053749;28;20037;-67
2023/04/14 05:32:07;;;;;;;8.00;4.15;;;2.30;99.90;;;;;;5048029;28;20506;-68
2023/04/14 05:34:33;;;;;;;12.00;4.93;;;2.30;99.90;;;;;;5053728;28;20048;-67
2023/04/14 05:36:58;;;;;;;12.50;4.90;;;2.30;99.90;;;;;;5053073;28;20549;-67
2023/04/14 05:43:05;;;;;;;12.10;4.65;;;2.40;99.90;;;;;;5055414;28;20451;-67
2023/04/14 05:45:31;;;;;;;11.77;5.57;;;2.50;99.90;;;;;;5053894;28;20064;-67
2023/04/14 05:47:56;;;;;;;9.80;4.57;;;2.50;99.90;;;;;;5053721;28;20043;-68
2023/04/14 05:54:03;;;;;;;13.55;5.60;;;2.50;99.90;;;;;;5052390;28;20048;-67
2023/04/14 05:56:28;;;;;;;12.15;5.07;;;2.60;99.90;;;;;;5053292;28;20033;-68
2023/04/14 05:58:54;;;;;;;12.02;5.10;;;2.60;99.90;;;;;;5064573;28;20040;-68
2023/04/14 06:01:20;;;;;;;11.25;4.93;;;2.60;99.90;;;;;;5054705;28;20112;-67
2023/04/14 06:03:45;;;;;;;11.80;5.20;;;2.60;99.90;;;;;;5052987;28;20047;-68
2023/04/14 06:06:11;;;;;;;10.52;5.18;;;2.60;99.90;;;;;;5053894;28;20395;-68
2023/04/14 06:08:36;;;;;;;15.82;5.40;;;2.70;99.90;;;;;;5053050;28;20487;-67
2023/04/14 06:18:23;;;;;;;15.00;5.70;;;3.00;99.90;;;;;;5038775;28;20093;-67
2023/04/14 06:20:49;;;;;;;15.27;6.32;;;3.10;99.90;;;;;;5053362;28;20116;-67
2023/04/14 06:26:57;;;;;;;18.52;7.35;;;3.40;99.90;;;;;;5054641;28;20075;-67
2023/04/14 06:29:22;;;;;;;14.80;6.65;;;3.60;99.90;;;;;;5053223;28;20052;-67
2023/04/14 06:31:50;;;;;;;15.32;6.75;;;3.80;99.90;;;;;;5052858;28;20040;-67
2023/04/14 06:34:16;;;;;;;15.90;6.97;;;3.90;99.90;;;;;;5040695;28;20041;-64
2023/04/14 06:36:41;;;;;;;13.90;6.78;;;4.10;99.90;;;;;;5045799;28;20045;-65
2023/04/14 06:39:07;;;;;;;14.80;6.60;;;4.20;99.90;;;;;;5041082;28;20052;-65
2023/04/14 06:41:33;;;;;;;16.88;6.88;;;4.40;99.90;;;;;;5054932;28;20383;-65
2023/04/14 06:43:58;;;;;;;15.00;6.90;;;4.50;99.90;;;;;;5053133;28;20047;-65
2023/04/14 06:46:24;;;;;;;13.00;7.00;;;4.80;99.90;;;;;;5053164;28;20086;-65
2023/04/14 06:48:49;;;;;;;15.13;7.05;;;4.90;99.90;;;;;;5053633;28;20486;-65
2023/04/14 06:51:15;;;;;;;12.77;6.53;;;5.10;99.90;;;;;;5052930;28;20062;-65
2023/04/14 06:53:40;;;;;;;14.15;7.25;;;5.30;99.90;;;;;;5052977;28;20037;-65
2023/04/14 06:56:06;;;;;;;13.85;7.43;;;5.50;99.90;;;;;;5052990;28;20052;-64
2023/04/14 06:58:32;;;;;;;16.73;6.95;;;5.70;99.90;;;;;;5052904;28;20487;-65
2023/04/14 07:01:00;;;;;;;12.63;6.85;;;5.90;99.90;;;;;;5052779;28;20041;-64
2023/04/14 07:03:27;;;;;;;19.85;7.18;;;6.10;99.90;;;;;;5052813;28;20391;-64
2023/04/14 07:05:53;;;;;;;14.25;7.45;;;6.20;99.90;;;;;;5052788;28;20114;-64
2023/04/14 07:12:00;;;;;;;13.75;6.75;;;6.60;99.90;;;;;;5053970;28;20082;-65
2023/04/14 07:14:26;;;;;;;16.83;7.10;;;6.80;99.90;;;;;;5052578;28;20045;-64
2023/04/14 07:16:52;;;;;;;17.73;7.10;;;7.00;99.90;;;;;;5052614;28;20036;-65
2023/04/14 07:19:17;;;;;;;12.20;6.93;;;7.10;99.90;;;;;;5052543;28;20077;-66
2023/04/14 07:21:44;;;;;;;17.70;7.43;;;7.30;99.90;;;;;;5052377;28;20440;-65
2023/04/14 07:24:10;;;;;;;19.00;6.97;;;7.40;99.90;;;;;;5052501;28;20041;-65
2023/04/14 07:26:36;;;;;;;20.90;7.25;;;7.60;99.90;;;;;;5052443;28;20041;-65
2023/04/14 07:29:01;;;;;;;15.75;6.65;;;7.70;99.90;;;;;;5052409;28;20060;-65
2023/04/14 07:31:28;;;;;;;12.38;6.70;;;7.90;99.90;;;;;;5052227;28;20044;-64
2023/04/14 07:33:53;;;;;;;16.65;6.80;;;8.00;99.90;;;;;;5052332;28;20049;-64
2023/04/14 07:36:19;;;;;;;14.43;6.80;;;8.20;99.90;;;;;;5052238;28;20162;-64
2023/04/14 07:38:44;;;;;;;15.07;6.35;;;8.30;99.90;;;;;;5054055;28;20122;-64
2023/04/14 07:41:10;;;;;;;17.88;6.88;;;8.40;99.90;;;;;;5052148;28;20519;-65
2023/04/14 07:43:36;;;;;;;15.55;7.30;;;8.50;99.90;;;;;;5052462;28;20118;-65
2023/04/14 07:46:06;;;;;;;16.85;6.63;;;8.60;99.90;;;;;;5052233;28;20037;-64
2023/04/14 07:48:33;;;;;;;14.73;6.28;;;8.70;99.90;;;;;;5052197;28;20041;-64
2023/04/14 07:50:59;;;;;;;14.88;6.75;;;8.90;99.90;;;;;;5052135;28;20080;-65
2023/04/14 07:53:25;;;;;;;14.77;6.53;;;9.00;99.90;;;;;;5052090;28;20072;-65
2023/04/14 07:55:51;;;;;;;13.93;6.32;;;9.10;99.90;;;;;;5053578;28;20056;-65
2023/04/14 07:58:16;;;;;;;16.52;6.10;;;9.20;99.90;;;;;;5052059;28;20642;-64
2023/04/14 08:00:42;;;;;;;14.80;6.03;;;9.30;99.90;;;;;;5053465;28;20080;-65
2023/04/14 08:03:08;;;;;;;16.80;6.93;;;9.40;99.90;;;;;;5056175;28;20091;-65
2023/04/14 08:05:34;;;;;;;16.08;6.70;;;9.60;99.90;;;;;;5056133;28;20037;-64
2023/04/14 08:07:59;;;;;;;13.93;6.00;;;9.70;99.90;;;;;;5056052;28;20037;-64
2023/04/14 08:10:25;;;;;;;14.32;5.32;;;9.80;99.90;;;;;;5056079;28;20170;-64
2023/04/14 08:12:51;;;;;;;17.02;5.90;;;9.90;99.90;;;;;;5057525;28;20463;-65
2023/04/14 08:15:17;;;;;;;16.65;6.13;;;10.00;99.90;;;;;;5055991;28;20053;-64
2023/04/14 08:17:43;;;;;;;15.60;6.00;;;10.10;99.90;;;;;;5057716;28;20040;-64
2023/04/14 08:20:09;;;;;;;15.20;6.18;;;10.20;99.90;;;;;;5057140;28;20033;-64
2023/04/14 08:22:34;;;;;;;14.32;5.75;;;10.30;99.90;;;;;;5055435;28;20049;-64
2023/04/14 08:25:00;;;;;;;14.88;5.35;;;10.40;99.90;;;;;;5074621;28;20487;-64
2023/04/14 08:27:25;;;;;;;12.73;5.10;;;10.50;99.90;;;;;;5075791;28;20126;-65
2023/04/14 08:29:51;;;;;;;11.07;5.10;;;10.60;99.90;;;;;;5075676;28;20043;-64
2023/04/14 08:32:17;;;;;;;17.02;4.97;;;10.70;99.90;;;;;;5061983;28;20044;-64
2023/04/14 08:34:43;;;;;;;15.90;4.88;;;10.80;99.90;;;;;;5055590;28;20158;-64
2023/04/14 08:37:08;;;;;;;12.32;4.80;;;10.90;99.90;;;;;;5056852;28;20619;-65
2023/04/14 08:39:34;;;;;;;12.20;5.03;;;10.90;99.90;;;;;;5055346;28;20041;-63
2023/04/14 08:42:00;;;;;;;11.90;4.55;;;11.00;99.90;;;;;;5056839;28;20045;-63
2023/04/14 08:44:25;;;;;;;11.23;4.60;;;11.10;99.90;;;;;;5070154;28;20096;-65
2023/04/14 08:46:52;;;;;;;12.40;4.75;;;11.10;99.90;;;;;;5055258;28;20484;-65
2023/04/14 08:49:34;;;;;;;15.80;5.25;;;11.20;99.90;;;;;;5055284;28;20052;-65
2023/04/14 08:52:04;;;;;;;11.00;4.45;;;11.30;99.90;;;;;;5055331;28;20408;-64
2023/04/14 08:54:31;;;;;;;13.85;4.40;;;11.40;99.90;;;;;;5055122;28;20373;-64
2023/04/14 08:56:58;;;;;;;11.63;4.30;;;11.50;99.90;;;;;;5054981;28;20140;-63
2023/04/14 08:59:25;;;;;;;17.90;4.82;;;11.50;99.90;;;;;;5055496;28;20102;-65
2023/04/14 09:01:51;;;;;;;15.60;4.72;;;11.60;99.90;;;;;;5051591;28;20103;-65
2023/04/14 09:04:19;;;;;;;11.02;4.80;;;11.60;99.90;;;;;;5035132;28;20054;-64
2023/04/14 09:06:44;;;;;;;12.30;4.65;;;11.70;99.90;;;;;;5050716;28;20098;-65
2023/04/14 09:09:10;;;;;;;11.32;4.47;;;11.80;99.90;;;;;;5055781;28;20044;-64
2023/04/14 09:11:36;;;;;;;13.43;4.05;;;11.90;99.90;;;;;;5055829;28;20048;-64
2023/04/14 09:14:03;;;;;;;9.68;3.40;;;12.00;99.90;;;;;;5054881;28;20051;-65
2023/04/14 09:16:30;;;;;;;11.00;3.40;;;12.10;99.90;;;;;;5054468;28;20074;-64
2023/04/14 09:18:57;;;;;;;14.70;3.45;;;12.10;99.90;;;;;;5054963;28;20076;-65
2023/04/14 09:21:26;;;;;;;11.35;3.03;;;12.20;99.90;;;;;;5054560;28;20045;-64
2023/04/14 09:23:51;;;;;;;9.52;3.08;;;12.20;99.90;;;;;;5054422;28;20111;-64
2023/04/14 09:26:17;;;;;;;10.23;3.30;;;12.30;99.90;;;;;;5071164;28;20484;-63
2023/04/14 09:28:43;;;;;;;11.93;3.47;;;12.30;99.90;;;;;;5052634;28;20041;-64
2023/04/14 09:31:10;;;;;;;9.13;3.10;;;12.40;99.90;;;;;;5054399;28;20495;-64
2023/04/14 09:33:42;;;;;;;10.88;3.20;;;12.50;99.90;;;;;;5054407;28;20040;-63
2023/04/14 09:36:18;;;;;;;8.77;3.28;;;12.50;99.90;;;;;;5054075;28;20041;-64
2023/04/14 09:38:43;;;;;;;12.63;3.10;;;12.60;99.90;;;;;;5050973;28;20029;-64
2023/04/14 09:41:24;;;;;;;6.75;2.67;;;12.70;99.90;;;;;;5034582;28;20055;-64
2023/04/14 09:43:54;;;;;;;11.50;3.13;;;12.70;99.90;;;;;;5049641;28;20074;-65
2023/04/14 09:46:20;;;;;;;13.20;3.53;;;12.70;99.90;;;;;;5054288;28;20040;-65
2023/04/14 09:48:51;;;;;;;8.32;3.45;;;12.90;99.90;;;;;;5053543;28;20047;-64
2023/04/14 09:51:19;;;;;;;12.45;3.33;;;13.00;99.90;;;;;;5053717;28;20055;-65
2023/04/14 09:53:45;;;;;;;12.90;3.17;;;13.10;99.90;;;;;;5055083;28;20045;-64
2023/04/14 09:56:11;;;;;;;8.20;2.88;;;13.40;99.90;;;;;;5060781;28;20507;-64
2023/04/14 10:06:00;;;;;;;10.52;2.30;;;13.90;99.90;;;;;;5054918;28;20379;-65
2023/04/14 10:08:43;;;;;;;8.75;2.58;;;14.20;99.90;;;;;;5053721;28;20038;-64
2023/04/14 10:11:29;;;;;;;6.38;2.63;;;14.00;99.90;;;;;;5055094;28;20044;-65
2023/04/14 10:14:02;;;;;;;11.63;3.92;;;13.80;99.90;;;;;;5054775;28;20032;-64
2023/04/14 10:16:28;;;;;;;9.63;3.63;;;13.70;99.90;;;;;;5053313;28;20063;-64
2023/04/14 10:18:55;;;;;;;9.45;3.78;;;13.70;99.90;;;;;;5065035;28;20788;-64
2023/04/14 10:21:21;;;;;;;10.45;3.67;;;13.80;99.90;;;;;;5060209;28;20055;-66
2023/04/14 10:23:48;;;;;;;7.75;3.47;;;13.80;99.90;;;;;;5053145;28;20107;-65
2023/04/14 10:26:14;;;;;;;8.38;3.50;;;13.80;99.90;;;;;;5054409;28;20083;-64
2023/04/14 10:28:47;;;;;;;10.40;3.60;;;13.80;99.90;;;;;;5052355;28;20045;-64
2023/04/14 10:31:32;;;;;;;9.07;3.47;;;13.90;99.90;;;;;;5051979;28;20072;-64
2023/04/14 10:33:57;;;;;;;7.95;3.13;;;14.10;99.90;;;;;;5055566;28;20058;-65
2023/04/14 10:40:05;;;;;;;9.18;3.42;;;14.40;99.90;;;;;;5048431;28;20564;-64
2023/04/14 10:42:52;;;;;;;8.75;4.07;;;14.70;99.90;;;;;;5052946;28;20099;-64
2023/04/14 10:45:17;;;;;;;14.43;3.58;;;14.90;99.90;;;;;;5067452;28;20090;-65
2023/04/14 10:47:44;;;;;;;7.78;3.05;;;14.90;99.90;;;;;;5048359;28;20041;-65
2023/04/14 10:50:17;;;;;;;8.27;3.22;;;15.00;99.90;;;;;;5035142;28;20045;-64
2023/04/14 10:52:52;;;;;;;8.48;3.30;;;15.20;99.90;;;;;;5068284;28;20119;-64
2023/04/14 10:55:24;;;;;;;7.28;3.15;;;15.30;99.90;;;;;;5054147;28;20414;-64
2023/04/14 11:01:31;;;;;;;7.20;3.17;;;14.90;99.90;;;;;;5054049;28;20071;-65
2023/04/14 11:04:10;;;;;;;9.07;3.63;;;14.90;99.90;;;;;;5045839;28;20060;-64
2023/04/14 11:14:10;;;;;;;8.50;2.83;;;14.80;99.90;;;;;;5044786;28;20163;-65
2023/04/14 11:16:38;;;;;;;7.40;2.80;;;15.00;99.90;;;;;;5052052;28;20041;-64
2023/04/14 11:19:13;;;;;;;10.43;2.70;;;15.30;99.90;;;;;;5050974;28;20033;-64
2023/04/14 11:25:18;;;;;;;6.90;2.55;;;15.60;99.90;;;;;;5051515;28;20998;-64
2023/04/14 11:27:45;;;;;;;8.00;3.03;;;15.50;99.90;;;;;;5054612;28;20041;-64
2023/04/14 11:30:15;;;;;;;8.27;2.60;;;15.40;99.90;;;;;;5052181;28;20108;-64
2023/04/14 11:32:52;;;;;;;8.55;2.58;;;15.20;99.90;;;;;;5051779;28;20055;-64
2023/04/14 11:35:23;;;;;;;9.48;2.50;;;15.00;99.90;;;;;;5036913;28;20041;-65
2023/04/14 11:37:52;;;;;;;8.38;2.60;;;14.80;99.90;;;;;;5052110;28;20040;-65
2023/04/14 11:40:25;;;;;;;7.78;2.25;;;14.80;99.90;;;;;;5047190;28;20103;-65
2023/04/14 11:42:57;;;;;;;9.82;2.20;;;15.00;99.90;;;;;;5052310;28;20471;-64
2023/04/14 11:45:30;;;;;;;7.50;2.55;;;15.20;99.90;;;;;;5053874;28;20044;-65
2023/04/14 11:48:00;;;;;;;7.47;2.47;;;15.40;99.90;;;;;;5049454;28;20388;-64
2023/04/14 11:50:30;;;;;;;7.13;2.20;;;15.50;99.90;;;;;;5051972;28;20072;-65
2023/04/14 11:52:58;;;;;;;8.88;3.00;;;15.60;99.90;;;;;;5040719;28;20072;-64
2023/04/14 11:55:28;;;;;;;8.85;3.03;;;15.70;99.90;;;;;;5047604;28;20041;-65
2023/04/14 11:57:55;;;;;;;8.10;2.63;;;15.80;99.90;;;;;;5050931;28;20041;-65
2023/04/14 12:00:21;;;;;;;7.28;2.80;;;15.90;99.90;;;;;;5050691;28;20129;-64
2023/04/14 12:02:47;;;;;;;6.80;2.55;;;15.80;99.90;;;;;;5049908;28;20506;-65
2023/04/14 12:05:21;;;;;;;10.98;3.67;;;15.90;99.90;;;;;;5051002;28;20039;-65
2023/04/14 12:15:32;;;;;;;7.13;2.55;;;15.80;99.90;;;;;;5039570;28;20063;-65
2023/04/14 12:17:58;;;;;;;9.20;2.80;;;16.10;99.90;;;;;;5050354;28;20041;-64
2023/04/14 12:20:25;;;;;;;8.68;3.03;;;16.20;99.90;;;;;;5060365;28;20033;-64
2023/04/14 12:22:51;;;;;;;11.38;3.10;;;16.40;99.90;;;;;;5042641;28;20037;-65
2023/04/14 12:25:17;;;;;;;7.78;2.67;;;16.40;99.90;;;;;;5050814;28;20048;-64
2023/04/14 12:27:50;;;;;;;12.48;3.50;;;16.40;99.90;;;;;;5053388;28;20130;-65
2023/04/14 12:30:20;;;;;;;8.90;2.92;;;16.20;99.90;;;;;;5051339;28;20162;-64
2023/04/14 12:32:45;;;;;;;7.93;3.00;;;16.10;99.90;;;;;;5034098;28;20063;-65
2023/04/14 12:35:11;;;;;;;7.38;2.78;;;15.90;99.90;;;;;;5051620;28;20045;-64
2023/04/14 12:37:37;;;;;;;8.55;2.70;;;15.80;99.90;;;;;;5052739;28;20047;-65
2023/04/14 12:40:05;;;;;;;9.82;2.80;;;15.80;99.90;;;;;;5049226;28;20055;-64
2023/04/14 12:42:48;;;;;;;6.25;2.63;;;16.00;99.90;;;;;;5050748;28;20461;-64
2023/04/14 12:48:54;;;;;;;6.50;2.92;;;15.90;99.90;;;;;;5052771;28;20111;-65
2023/04/14 12:51:20;;;;;;;6.72;2.30;;;16.10;99.90;;;;;;5055791;28;20458;-64
2023/04/14 12:53:48;;;;;;;8.70;2.90;;;16.10;99.90;;;;;;5056145;28;20037;-65
2023/04/14 12:56:15;;;;;;;10.18;2.67;;;16.30;99.90;;;;;;5056664;28;20037;-65
2023/04/14 12:58:48;;;;;;;6.05;2.40;;;16.30;99.90;;;;;;5053036;28;20029;-65
2023/04/14 13:01:18;;;;;;;7.45;2.60;;;16.40;99.90;;;;;;5051339;28;20041;-66
2023/04/14 13:07:25;;;;;;;6.15;2.45;;;16.50;99.90;;;;;;5049208;28;20078;-64
2023/04/14 13:09:51;;;;;;;7.97;2.22;;;16.50;99.90;;;;;;5053534;28;20041;-65
2023/04/14 13:12:17;;;;;;;5.00;2.28;;;16.50;99.90;;;;;;5055657;28;20037;-65
2023/04/14 13:14:43;;;;;;;5.50;2.22;;;16.60;99.90;;;;;;5061339;28;20056;-65
2023/04/14 13:17:08;;;;;;;8.38;1.98;;;16.60;99.90;;;;;;5064153;28;20421;-66
2023/04/14 13:22:56;;;;;;;7.82;2.60;;;16.80;99.90;;;;;;5044989;28;20041;-64
2023/04/14 13:25:22;;;;;;;6.95;2.10;;;17.00;99.90;;;;;;5054126;28;20366;-64
2023/04/14 13:27:47;;;;;;;7.82;2.55;;;17.00;99.90;;;;;;5067121;28;20062;-64
2023/04/14 13:30:13;;;;;;;6.57;2.38;;;17.10;99.90;;;;;;5054137;28;20082;-65
2023/04/14 13:32:38;;;;;;;6.38;2.60;;;17.30;99.90;;;;;;5054508;28;20055;-64
2023/04/14 13:35:05;;;;;;;11.10;2.35;;;17.40;99.90;;;;;;5055527;28;20546;-65
2023/04/14 13:37:30;;;;;;;10.55;2.28;;;17.60;99.90;;;;;;5054471;28;20547;-65
2023/04/14 13:39:56;;;;;;;8.10;2.20;;;17.60;99.90;;;;;;5049192;28;20116;-67
2023/04/14 13:42:21;;;;;;;7.07;2.15;;;17.60;99.90;;;;;;5050505;28;20041;-65
2023/04/14 13:44:47;;;;;;;7.50;2.10;;;17.70;99.90;;;;;;5053545;28;20392;-66
2023/04/14 13:47:12;;;;;;;9.18;2.38;;;17.70;99.90;;;;;;5054341;28;20044;-65
2023/04/14 13:49:38;;;;;;;7.88;2.15;;;17.60;99.50;;;;;;5053646;28;20064;-65
2023/04/14 13:52:04;;;;;;;8.48;2.00;;;17.30;99.90;;;;;;5053722;28;20119;-64
2023/04/14 13:54:29;;;;;;;7.38;2.22;;;17.00;99.90;;;;;;5055462;28;20167;-64
2023/04/14 13:56:55;;;;;;;6.68;2.33;;;16.60;99.90;;;;;;5054141;28;20041;-64
2023/04/14 13:59:21;;;;;;;7.00;1.90;;;16.30;99.90;;;;;;5054174;28;20052;-64
2023/04/14 14:01:47;;;;;;;6.50;1.80;;;16.00;99.90;;;;;;5053880;28;20080;-65
2023/04/14 14:04:12;;;;;;;6.38;2.28;;;15.70;99.90;;;;;;5053796;28;20114;-66
2023/04/14 14:06:38;;;;;;;6.20;1.80;;;15.90;99.90;;;;;;5070313;28;20041;-65
2023/04/14 14:09:04;;;;;;;7.78;1.55;;;16.00;99.90;;;;;;5053803;28;20454;-64
2023/04/14 14:11:30;;;;;;;5.70;1.88;;;16.40;99.90;;;;;;5054064;28;20037;-65
2023/04/14 14:13:55;;;;;;;6.85;2.08;;;16.70;99.90;;;;;;5040444;28;20082;-64
2023/04/14 14:16:21;;;;;;;4.82;1.80;;;16.70;91.90;;;;;;5053609;28;20053;-64
2023/04/14 14:18:47;;;;;;;5.85;1.70;;;16.80;92.30;;;;;;5053817;28;20048;-64
2023/04/14 14:21:13;;;;;;;4.28;1.70;;;17.00;94.60;;;;;;5053362;28;20033;-66
2023/04/14 14:23:39;;;;;;;5.30;2.15;;;17.20;95.80;;;;;;5053809;28;20079;-64
2023/04/14 14:26:05;;;;;;;6.82;2.00;;;17.60;96.80;;;;;;5053241;28;20083;-64
2023/04/14 14:28:31;;;;;;;6.70;2.15;;;17.80;97.90;;;;;;5053431;28;20069;-64
2023/04/14 14:30:56;;;;;;;8.27;2.13;;;18.00;96.20;;;;;;5053386;28;20530;-65
2023/04/14 14:33:22;;;;;;;8.77;2.72;;;18.20;95.30;;;;;;5053375;28;20041;-65
2023/04/14 14:35:47;;;;;;;16.90;2.25;;;18.20;94.60;;;;;;5050257;28;20041;-64
2023/04/14 14:38:13;;;;;;;8.77;2.47;;;18.10;93.60;;;;;;5034789;28;20419;-66
2023/04/14 14:40:38;;;;;;;5.03;2.15;;;18.30;95.20;;;;;;5046411;28;20564;-65
2023/04/14 14:43:04;;;;;;;7.40;2.55;;;18.40;94.30;;;;;;5053008;28;20045;-65